createdAt,value
2018-03-29T00:09:34.581Z,5.70
2018-03-29T00:12:13.714Z,5.80
2018-03-29T05:55:09.295Z,6.10
2018-03-29T05:57:40.257Z,6.00
2018-03-29T06:00:10.183Z,6.30
2018-03-29T06:08:58.596Z,6.20
2018-03-29T06:11:40.976Z,6.00
2018-03-29T06:14:12.191Z,6.00
2018-03-29T06:16:47.310Z,6.00
2018-03-29T06:19:16.358Z,6.10
2018-03-29T06:21:48.916Z,6.20
2018-03-29T06:24:19.229Z,6.20
2018-03-29T06:26:48.658Z,6.40
2018-03-29T06:29:18.350Z,6.50
2018-03-29T06:31:49.206Z,6.60
2018-03-29T06:34:18.379Z,6.60
2018-03-29T06:36:47.888Z,6.70
2018-03-29T06:39:17.977Z,6.90
2018-03-29T06:41:48.508Z,6.90
2018-03-29T06:44:17.805Z,7.00
2018-03-29T06:46:47.542Z,7.30
2018-03-29T06:49:17.976Z,7.50
2018-03-29T06:51:47.201Z,7.50
2018-03-29T06:54:17.779Z,7.60
2018-03-29T06:56:49.657Z,7.80
2018-03-29T06:59:19.474Z,7.80
2018-03-29T07:01:49.124Z,7.90
2018-03-29T07:04:19.376Z,8.10
2018-03-29T07:06:48.994Z,8.10
2018-03-29T07:09:19.270Z,8.20
2018-03-29T07:11:48.682Z,8.30
2018-03-29T07:14:18.880Z,8.40
2018-03-29T07:16:48.053Z,8.30
2018-03-29T07:19:18.039Z,8.40
2018-03-29T07:21:48.668Z,8.50
2018-03-29T07:24:18.892Z,8.90
2018-03-29T07:26:47.980Z,8.90
2018-03-29T07:29:17.539Z,9.00
2018-03-29T07:31:46.455Z,9.20
2018-03-29T07:34:15.404Z,9.20
2018-03-29T07:36:44.410Z,9.40
2018-03-29T07:39:13.881Z,9.40
2018-03-29T07:41:42.856Z,9.20
2018-03-29T07:44:12.505Z,9.30
2018-03-29T07:46:42.743Z,9.40
2018-03-29T07:49:11.650Z,9.30
2018-03-29T07:51:40.445Z,9.40
2018-03-29T07:54:09.170Z,9.40
2018-03-29T07:56:38.001Z,9.40
2018-03-29T07:59:06.830Z,9.30
2018-03-29T08:01:35.657Z,9.20
2018-03-29T08:04:04.555Z,9.20
2018-03-29T08:06:33.481Z,9.30
2018-03-29T08:09:03.458Z,9.40
2018-03-29T08:11:32.688Z,9.40
2018-03-29T08:14:01.577Z,9.50
2018-03-29T08:16:30.644Z,9.40
2018-03-29T08:18:59.461Z,9.40
2018-03-29T08:21:28.273Z,9.50
2018-03-29T08:23:57.137Z,9.50
2018-03-29T08:26:25.930Z,9.60
2018-03-29T08:28:55.469Z,9.80
2018-03-29T08:31:24.446Z,9.80
2018-03-29T08:33:54.796Z,10.00
2018-03-29T08:36:24.351Z,10.00
2018-03-29T08:38:53.158Z,10.00
2018-03-29T08:41:22.023Z,10.10
2018-03-29T08:43:50.843Z,10.20
2018-03-29T08:46:19.700Z,10.20
2018-03-29T08:48:48.527Z,10.20
2018-03-29T08:51:18.361Z,10.10
2018-03-29T08:53:48.144Z,10.10
2018-03-29T08:56:16.801Z,10.10
2018-03-29T08:58:46.224Z,10.10
2018-03-29T09:01:15.320Z,10.00
2018-03-29T09:03:44.455Z,10.10
2018-03-29T09:06:15.002Z,10.00
2018-03-29T09:08:44.014Z,10.00
2018-03-29T09:11:13.017Z,9.90
2018-03-29T09:13:42.997Z,9.90
2018-03-29T09:16:12.771Z,9.80
2018-03-29T09:18:41.556Z,9.80
2018-03-29T09:21:11.691Z,9.80
2018-03-29T09:23:40.938Z,9.80
2018-03-29T09:26:09.925Z,9.80
2018-03-29T09:28:38.861Z,9.80
2018-03-29T09:31:09.296Z,9.80
2018-03-29T09:33:39.012Z,10.00
2018-03-29T09:36:08.355Z,10.10
2018-03-29T09:38:37.201Z,10.10
2018-03-29T09:41:07.237Z,10.10
2018-03-29T09:43:38.673Z,10.10
2018-03-29T09:46:10.602Z,10.10
2018-03-29T09:48:44.273Z,10.10
2018-03-29T09:51:14.120Z,10.10
2018-03-29T09:53:43.153Z,10.10
2018-03-29T09:56:13.034Z,10.10
2018-03-29T09:58:41.921Z,10.10
2018-03-29T10:01:10.605Z,10.00
2018-03-29T10:03:40.363Z,10.00
2018-03-29T10:06:15.178Z,9.90
2018-03-29T10:08:44.180Z,9.70
2018-03-29T10:11:13.118Z,9.70
2018-03-29T10:13:42.008Z,9.70
2018-03-29T10:16:10.761Z,9.60
2018-03-29T10:18:39.456Z,9.60
2018-03-29T10:21:08.517Z,9.70
2018-03-29T10:23:37.979Z,9.70
2018-03-29T10:26:07.099Z,9.70
2018-03-29T10:28:35.936Z,9.70
2018-03-29T10:31:04.772Z,9.70
2018-03-29T10:33:33.694Z,9.70
2018-03-29T10:36:03.159Z,9.80
2018-03-29T10:38:32.195Z,9.80
2018-03-29T10:41:01.123Z,9.70
2018-03-29T10:43:30.070Z,9.70
2018-03-29T10:45:59.551Z,9.70
2018-03-29T10:48:32.708Z,9.90
2018-03-29T10:51:02.663Z,10.00
2018-03-29T10:53:32.436Z,10.10
2018-03-29T10:56:01.986Z,10.10
2018-03-29T10:58:31.309Z,10.10
2018-03-29T11:01:00.597Z,10.10
2018-03-29T11:03:29.650Z,10.10
2018-03-29T11:05:59.310Z,10.10
2018-03-29T11:08:29.362Z,10.30
2018-03-29T11:10:59.021Z,10.20
2018-03-29T11:13:28.001Z,10.20
2018-03-29T11:15:58.721Z,10.30
2018-03-29T11:18:27.793Z,10.30
2018-03-29T11:21:00.109Z,10.30
2018-03-29T11:23:29.605Z,10.20
2018-03-29T11:25:58.602Z,10.20
2018-03-29T11:28:28.262Z,10.20
2018-03-29T11:30:58.110Z,10.20
2018-03-29T11:33:27.008Z,10.20
2018-03-29T11:35:57.575Z,10.20
2018-03-29T11:38:27.716Z,10.10
2018-03-29T11:40:56.589Z,10.10
2018-03-29T11:43:26.074Z,10.10
2018-03-29T11:45:55.258Z,10.00
2018-03-29T11:48:24.082Z,10.00
2018-03-29T11:50:53.006Z,10.00
2018-03-29T11:53:21.777Z,10.10
2018-03-29T11:55:50.602Z,10.10
2018-03-29T11:58:20.159Z,10.10
2018-03-29T12:00:49.365Z,10.10
2018-03-29T12:03:18.194Z,10.20
2018-03-29T12:05:47.530Z,10.20
2018-03-29T12:08:16.542Z,10.10
2018-03-29T12:10:45.512Z,10.00
2018-03-29T12:13:14.481Z,10.10
2018-03-29T12:15:43.220Z,10.10
2018-03-29T12:18:12.951Z,10.10
2018-03-29T12:20:41.976Z,10.10
2018-03-29T12:23:11.450Z,10.10
2018-03-29T12:25:40.475Z,10.00
2018-03-29T12:28:09.597Z,9.90
2018-03-29T12:30:38.458Z,9.90
2018-03-29T12:33:07.312Z,9.80
2018-03-29T12:35:36.252Z,9.90
2018-03-29T12:38:05.024Z,9.90
2018-03-29T12:40:33.854Z,10.00
2018-03-29T12:43:03.561Z,10.00
2018-03-29T12:45:32.429Z,10.00
2018-03-29T12:48:01.346Z,9.90
2018-03-29T12:50:30.226Z,9.90
2018-03-29T12:52:59.062Z,9.80
2018-03-29T12:55:39.676Z,9.90
2018-03-29T12:58:11.808Z,9.90
2018-03-29T13:00:41.378Z,9.90
2018-03-29T13:03:10.849Z,9.90
2018-03-29T13:05:39.572Z,9.90
2018-03-29T13:08:09.085Z,9.90
2018-03-29T13:10:38.074Z,10.00
2018-03-29T13:13:07.909Z,10.10
2018-03-29T13:15:37.011Z,10.10
2018-03-29T13:18:05.771Z,10.20
2018-03-29T13:20:35.326Z,10.20
2018-03-29T13:23:04.294Z,10.20
2018-03-29T13:25:33.220Z,10.30
2018-03-29T13:28:02.158Z,10.30
2018-03-29T13:30:30.942Z,10.20
2018-03-29T13:33:00.835Z,10.20
2018-03-29T13:35:30.412Z,10.20
2018-03-29T13:38:00.186Z,10.20
2018-03-29T13:40:29.389Z,10.20
2018-03-29T13:42:58.247Z,10.20
2018-03-29T13:45:26.957Z,10.10
2018-03-29T13:47:55.956Z,10.10
2018-03-29T13:50:25.407Z,10.20
2018-03-29T13:52:54.292Z,10.20
2018-03-29T13:55:23.257Z,10.10
2018-03-29T13:57:52.768Z,10.10
2018-03-29T14:00:21.822Z,10.10
2018-03-29T14:02:50.953Z,10.10
2018-03-29T14:05:19.780Z,10.10
2018-03-29T14:07:48.657Z,10.10
2018-03-29T14:10:17.442Z,10.10
2018-03-29T14:12:46.273Z,10.10
2018-03-29T14:15:15.107Z,10.10
2018-03-29T14:17:43.922Z,10.10
2018-03-29T14:20:12.773Z,10.20
2018-03-29T14:22:41.744Z,10.10
2018-03-29T14:25:11.163Z,10.00
2018-03-29T14:27:40.134Z,10.00
2018-03-29T14:30:09.838Z,9.70
2018-03-29T14:32:38.835Z,9.70
2018-03-29T14:35:07.826Z,9.60
2018-03-29T14:37:37.344Z,9.50
2018-03-29T14:40:06.186Z,9.50
2018-03-29T14:42:36.028Z,9.50
2018-03-29T14:45:04.886Z,9.40
2018-03-29T14:47:34.041Z,9.40
2018-03-29T14:50:02.822Z,9.40
2018-03-29T14:52:32.387Z,9.20
2018-03-29T14:55:01.576Z,9.20
2018-03-29T14:57:30.383Z,9.20
2018-03-29T14:59:59.928Z,9.20
2018-03-29T15:02:29.094Z,9.10
2018-03-29T15:04:58.935Z,8.90
2018-03-29T15:07:27.808Z,8.90
2018-03-29T15:09:56.642Z,8.80
2018-03-29T15:12:25.450Z,8.80
2018-03-29T15:14:54.988Z,8.70
2018-03-29T15:17:24.113Z,8.60
2018-03-29T15:19:53.681Z,8.70
2018-03-29T15:22:22.817Z,8.60
2018-03-29T15:24:52.393Z,8.60
2018-03-29T15:27:21.509Z,8.50
2018-03-29T15:29:51.083Z,8.50
2018-03-29T15:32:21.103Z,8.40
2018-03-29T15:34:50.769Z,8.40
2018-03-29T15:37:20.702Z,8.40
2018-03-29T15:39:49.778Z,8.30
2018-03-29T15:42:19.351Z,8.30
2018-03-29T15:44:49.298Z,8.40
2018-03-29T15:47:18.327Z,8.40
2018-03-29T15:49:47.898Z,8.40
2018-03-29T15:52:17.050Z,8.40
2018-03-29T15:54:46.934Z,8.30
2018-03-29T15:57:16.487Z,8.30
2018-03-29T15:59:45.545Z,8.30
2018-03-29T16:02:15.139Z,8.20
2018-03-29T16:04:44.300Z,8.20
2018-03-29T16:07:14.014Z,8.10
2018-03-29T16:09:44.615Z,8.10
2018-03-29T16:12:14.850Z,8.10
2018-03-29T16:14:44.730Z,8.10
2018-03-29T16:17:14.251Z,8.10
2018-03-29T16:19:43.406Z,8.10
2018-03-29T16:22:12.937Z,8.00
2018-03-29T16:24:41.957Z,7.90
2018-03-29T16:27:10.926Z,7.90
2018-03-29T16:29:40.449Z,7.90
2018-03-29T16:32:09.613Z,7.90
2018-03-29T16:34:39.153Z,7.80
2018-03-29T16:37:09.310Z,7.80
2018-03-29T16:43:10.465Z,7.70
2018-03-29T16:45:39.618Z,7.60
2018-03-29T16:48:09.170Z,7.50
2018-03-29T16:50:39.025Z,7.60
2018-03-29T18:16:16.257Z,7.30
2018-03-29T18:18:45.337Z,7.30
2018-03-29T18:21:25.905Z,7.20
2018-03-29T19:47:46.428Z,7.10
